Time;durP1;ratioP1;P1;durP2;ratioP2;P2;SDS_P1;SDS_P2;PMS_P1;PMS_P2;Temp;Humidity;BMP_temperature;BMP_pressure;BME280_temperature;BME280_humidity;BME280_pressure;Samples;Min_cycle;Max_cycle;Signal;HPM_P1;HPM_P2
2023/04/09 00:01:17;;;;;;;;;;;5.00;99.90;;;;;;5070982;28;19920;-62
2023/04/09 00:03:49;;;;;;;;;;;5.00;99.90;;;;;;5068962;28;19967;-63
2023/04/09 00:06:21;;;;;;;;;;;5.00;99.90;;;;;;5070793;28;20043;-62
2023/04/09 00:08:53;;;;;;;;;;;5.10;99.90;;;;;;5067432;28;20460;-63
2023/04/09 00:11:25;;;;;;;;;;;5.10;99.90;;;;;;5070821;28;20300;-62
2023/04/09 00:13:57;;;;;;;;;;;5.10;99.90;;;;;;5070869;28;19950;-62
2023/04/09 00:16:28;;;;;;;;;;;5.00;99.90;;;;;;5069820;28;19928;-62
2023/04/09 00:19:00;;;;;;;;;;;5.00;99.90;;;;;;5070678;28;20616;-62
2023/04/09 00:21:32;;;;;;;;;;;5.00;99.90;;;;;;5067579;28;19924;-62
2023/04/09 00:23:59;;;;;;;;;;;5.00;99.90;;;;;;5068071;28;19920;-63
2023/04/09 00:26:31;;;;;;;;;;;4.90;99.90;;;;;;5068423;28;20427;-62
2023/04/09 00:29:04;;;;;;;;;;;4.90;99.90;;;;;;5069173;28;19924;-63
2023/04/09 00:31:36;;;;;;;;;;;4.90;99.90;;;;;;5052505;28;19920;-62
2023/04/09 00:34:03;;;;;;;;;;;4.90;99.90;;;;;;5070741;28;20284;-62
2023/04/09 00:36:35;;;;;;;;;;;5.00;99.90;;;;;;5070550;28;19920;-62
2023/04/09 00:39:07;;;;;;;;;;;4.90;99.90;;;;;;5062659;28;19924;-63
2023/04/09 00:41:39;;;;;;;;;;;4.90;99.90;;;;;;5060029;28;19986;-62
2023/04/09 00:44:10;;;;;;;;;;;4.90;99.90;;;;;;5069289;28;20380;-63
2023/04/09 00:46:42;;;;;;;;;;;4.90;99.90;;;;;;5059690;28;19927;-62
2023/04/09 00:49:14;;;;;;;;;;;4.90;99.90;;;;;;5065720;28;20449;-62
2023/04/09 00:51:42;;;;;;;;;;;4.80;99.90;;;;;;5070451;28;20266;-62
2023/04/09 00:54:15;;;;;;;;;;;4.90;99.90;;;;;;5052457;28;19975;-62
2023/04/09 00:56:46;;;;;;;;;;;4.80;99.90;;;;;;5065716;28;19927;-62
2023/04/09 00:59:13;;;;;;;;;;;4.90;99.90;;;;;;5068659;28;19935;-63
2023/04/09 01:01:45;;;;;;;;;;;4.80;99.90;;;;;;5070491;28;19921;-62
2023/04/09 01:04:12;;;;;;;;;;;4.80;99.90;;;;;;5069053;28;19931;-62
2023/04/09 01:06:51;;;;;;;;;;;4.90;99.90;;;;;;5069158;28;19943;-63
2023/04/09 01:09:31;;;;;;;;;;;4.80;99.90;;;;;;5068069;28;19974;-63
2023/04/09 01:12:07;;;;;;;;;;;4.80;99.90;;;;;;5049675;28;19920;-62
2023/04/09 01:14:39;;;;;;;;;;;4.80;99.90;;;;;;5051259;28;19928;-63
2023/04/09 01:17:33;;;;;;;;;;;4.80;99.90;;;;;;5051632;28;19927;-63
2023/04/09 01:20:10;;;;;;;;;;;4.70;99.90;;;;;;5048459;28;19946;-63
2023/04/09 01:22:52;;;;;;;;;;;4.70;99.90;;;;;;5055761;28;19924;-63
2023/04/09 01:25:38;;;;;;;;;;;4.70;99.90;;;;;;5054700;28;19943;-63
2023/04/09 01:28:16;;;;;;;;;;;4.70;99.90;;;;;;5054695;28;19928;-62
2023/04/09 01:30:51;;;;;;;;;;;4.70;99.90;;;;;;5055638;28;19924;-62
2023/04/09 01:33:24;;;;;;;;;;;4.70;99.90;;;;;;5069212;28;19928;-63
2023/04/09 01:35:56;;;;;;;;;;;4.80;99.90;;;;;;5038363;28;20145;-62
2023/04/09 01:38:28;;;;;;;;;;;4.80;99.90;;;;;;5055080;28;19987;-63
2023/04/09 01:40:56;;;;;;;;;;;4.80;99.90;;;;;;5056453;28;19924;-62
2023/04/09 01:43:29;;;;;;;;;;;4.90;99.90;;;;;;5072698;28;19920;-63
2023/04/09 01:46:02;;;;;;;;;;;4.90;99.90;;;;;;5068623;28;19920;-62
2023/04/09 01:48:34;;;;;;;;;;;4.90;99.90;;;;;;5073851;28;19927;-62
2023/04/09 01:51:06;;;;;;;;;;;4.90;99.90;;;;;;5071074;28;19925;-62
2023/04/09 01:53:37;;;;;;;;;;;4.90;99.90;;;;;;5072523;28;19932;-63
2023/04/09 01:56:09;;;;;;;;;;;4.90;99.90;;;;;;5055709;28;19924;-63
2023/04/09 01:58:36;;;;;;;;;;;4.90;99.90;;;;;;5071895;28;19924;-63
2023/04/09 02:01:13;;;;;;;;;;;4.90;99.90;;;;;;5072433;28;19927;-62
2023/04/09 02:03:46;;;;;;;;;;;4.80;99.90;;;;;;5055671;28;20014;-63
2023/04/09 02:06:38;;;;;;;;;;;4.80;99.90;;;;;;5073669;28;20396;-62
2023/04/09 02:09:11;;;;;;;;;;;4.80;99.90;;;;;;5049674;28;19971;-62
2023/04/09 02:11:46;;;;;;;;;;;4.90;99.90;;;;;;5055255;28;19921;-68
2023/04/09 02:14:19;;;;;;;;;;;4.90;99.90;;;;;;5070142;28;19920;-62
2023/04/09 02:16:51;;;;;;;;;;;4.90;99.90;;;;;;5054789;28;19928;-62
2023/04/09 02:19:23;;;;;;;;;;;4.90;99.90;;;;;;5039250;28;19920;-62
2023/04/09 02:21:50;;;;;;;;;;;4.90;99.90;;;;;;5072080;28;19920;-62
2023/04/09 02:24:22;;;;;;;;;;;4.90;99.90;;;;;;5052001;28;19920;-61
2023/04/09 02:26:49;;;;;;;;;;;4.90;99.90;;;;;;5071875;28;20312;-62
2023/04/09 02:29:20;;;;;;;;;;;4.90;99.90;;;;;;5054058;28;19924;-63
2023/04/09 02:31:52;;;;;;;;;;;4.90;99.90;;;;;;5069505;28;19924;-62
2023/04/09 02:34:24;;;;;;;;;;;4.90;99.90;;;;;;5054918;28;20377;-63
2023/04/09 02:36:52;;;;;;;;;;;4.90;99.90;;;;;;5073229;28;20308;-62
2023/04/09 02:39:23;;;;;;;;;;;4.90;99.90;;;;;;5072718;28;19924;-62
2023/04/09 02:41:56;;;;;;;;;;;4.90;99.90;;;;;;5071695;28;19924;-62
2023/04/09 02:44:28;;;;;;;;;;;4.80;99.90;;;;;;5068958;28;19920;-62
2023/04/09 02:47:00;;;;;;;;;;;4.80;99.90;;;;;;5054689;28;19921;-62
2023/04/09 02:49:32;;;;;;;;;;;4.80;99.90;;;;;;5069416;28;19966;-62
2023/04/09 02:51:58;;;;;;;;;;;4.70;99.90;;;;;;5070914;28;20007;-62
2023/04/09 02:54:30;;;;;;;;;;;4.70;99.90;;;;;;5070655;28;20277;-62
2023/04/09 02:57:02;;;;;;;;;;;4.70;99.90;;;;;;5071362;28;19920;-62
2023/04/09 02:59:34;;;;;;;;;;;4.70;99.90;;;;;;5054183;28;20301;-62
2023/04/09 03:02:06;;;;;;;;;;;4.70;99.90;;;;;;5053746;28;19948;-63
2023/04/09 03:04:38;;;;;;;;;;;4.70;99.90;;;;;;5054333;28;20001;-62
2023/04/09 03:07:09;;;;;;;;;;;4.60;99.90;;;;;;5070058;28;20392;-62
2023/04/09 03:09:41;;;;;;;;;;;4.60;99.90;;;;;;5053132;28;19924;-62
2023/04/09 03:12:13;;;;;;;;;;;4.60;99.90;;;;;;5071835;28;19974;-62
2023/04/09 03:14:45;;;;;;;;;;;4.60;99.90;;;;;;5058808;28;19924;-62
2023/04/09 03:17:12;;;;;;;;;;;4.60;99.90;;;;;;5070078;28;19930;-62
2023/04/09 03:19:45;;;;;;;;;;;4.50;99.90;;;;;;5071745;28;19921;-62
2023/04/09 03:22:17;;;;;;;;;;;4.50;99.90;;;;;;5068554;28;20315;-62
2023/04/09 03:24:44;;;;;;;;;;;4.50;99.90;;;;;;5070611;28;19921;-62
2023/04/09 03:27:16;;;;;;;;;;;4.50;99.90;;;;;;5068789;28;20003;-62
2023/04/09 03:29:44;;;;;;;;;;;4.50;99.90;;;;;;5070426;28;19927;-62
2023/04/09 03:32:16;;;;;;;;;;;4.60;99.90;;;;;;5053433;28;19930;-62
2023/04/09 03:34:43;;;;;;;;;;;4.60;99.90;;;;;;5070514;28;19920;-62
2023/04/09 03:37:17;;;;;;;;;;;4.60;99.90;;;;;;5050253;28;19924;-62
2023/04/09 03:39:50;;;;;;;;;;;4.60;99.90;;;;;;5051086;28;20436;-63
2023/04/09 03:42:25;;;;;;;;;;;4.60;99.90;;;;;;5053424;28;19921;-62
2023/04/09 03:44:57;;;;;;;;;;;4.60;99.90;;;;;;5053829;28;20389;-62
2023/04/09 03:47:37;;;;;;;;;;;4.60;99.90;;;;;;5052433;28;19924;-62
2023/04/09 03:50:05;;;;;;;;;;;4.60;99.90;;;;;;5070368;28;20377;-62
2023/04/09 03:52:55;;;;;;;;;;;4.60;99.90;;;;;;5070315;28;19978;-62
2023/04/09 03:55:27;;;;;;;;;;;4.60;99.90;;;;;;5067890;28;19970;-62
2023/04/09 03:58:02;;;;;;;;;;;4.60;99.90;;;;;;5053159;28;19920;-62
2023/04/09 04:00:35;;;;;;;;;;;4.60;99.90;;;;;;5069285;28;20027;-62
2023/04/09 04:03:39;;;;;;;;;;;4.60;99.90;;;;;;5062627;28;19924;-62
2023/04/09 04:06:21;;;;;;;;;;;4.60;99.90;;;;;;5052187;28;19920;-62
2023/04/09 04:08:59;;;;;;;;;;;4.60;99.90;;;;;;5069730;28;20304;-62
2023/04/09 04:11:39;;;;;;;;;;;4.60;99.90;;;;;;5069419;28;20008;-62
2023/04/09 04:14:11;;;;;;;;;;;4.60;99.90;;;;;;5070124;28;19920;-62
2023/04/09 04:16:46;;;;;;;;;;;4.60;99.90;;;;;;5069224;28;19930;-62
2023/04/09 04:19:21;;;;;;;;;;;4.60;99.90;;;;;;5049628;28;19924;-63
2023/04/09 04:21:54;;;;;;;;;;;4.60;99.90;;;;;;5053454;28;20010;-62
2023/04/09 04:24:26;;;;;;;;;;;4.60;99.90;;;;;;5069931;28;19924;-62
2023/04/09 04:27:00;;;;;;;;;;;4.50;99.90;;;;;;5068145;28;19927;-62
2023/04/09 04:29:32;;;;;;;;;;;4.50;99.90;;;;;;5069720;28;20332;-61
2023/04/09 04:32:17;;;;;;;;;;;4.50;99.90;;;;;;5052975;28;19924;-62
2023/04/09 04:34:50;;;;;;;;;;;4.50;99.90;;;;;;5035369;28;20461;-63
2023/04/09 04:37:24;;;;;;;;;;;4.40;99.90;;;;;;5052899;28;19920;-62
2023/04/09 04:40:00;;;;;;;;;;;4.40;99.90;;;;;;5050763;28;19920;-63
2023/04/09 04:42:36;;;;;;;;;;;4.40;99.90;;;;;;5069860;28;19920;-62
2023/04/09 04:45:12;;;;;;;;;;;4.40;99.90;;;;;;5037755;28;20015;-63
2023/04/09 04:47:50;;;;;;;;;;;4.40;99.90;;;;;;5066359;28;19920;-62
2023/04/09 04:50:22;;;;;;;;;;;4.40;99.90;;;;;;5071000;28;19929;-62
2023/04/09 04:53:05;;;;;;;;;;;4.50;99.90;;;;;;5068548;28;20392;-63
2023/04/09 04:55:39;;;;;;;;;;;4.50;99.90;;;;;;5075259;28;20466;-63
2023/04/09 04:58:15;;;;;;;;;;;4.50;99.90;;;;;;5065486;28;20376;-62
2023/04/09 05:00:51;;;;;;;;;;;4.40;99.90;;;;;;5056563;28;20340;-62
2023/04/09 05:03:23;;;;;;;;;;;4.40;99.90;;;;;;5053864;28;19920;-62
2023/04/09 05:06:00;;;;;;;;;;;4.40;99.90;;;;;;5054837;28;19955;-62
2023/04/09 05:08:41;;;;;;;;;;;4.40;99.90;;;;;;5056373;28;20006;-62
2023/04/09 05:11:15;;;;;;;;;;;4.40;99.90;;;;;;5056404;28;19974;-62
2023/04/09 05:13:47;;;;;;;;;;;4.40;99.90;;;;;;5071869;28;19971;-62
2023/04/09 05:16:22;;;;;;;;;;;4.50;99.90;;;;;;5055117;28;20347;-62
2023/04/09 05:19:01;;;;;;;;;;;4.50;99.90;;;;;;5041368;28;19974;-62
2023/04/09 05:21:33;;;;;;;;;;;4.50;99.90;;;;;;5039095;28;19924;-62
2023/04/09 05:24:05;;;;;;;;;;;4.50;99.90;;;;;;5056462;28;19958;-62
2023/04/09 05:26:38;;;;;;;;;;;4.50;99.90;;;;;;5072886;28;20036;-62
2023/04/09 05:29:09;;;;;;;;;;;4.40;99.90;;;;;;5071188;28;19972;-62
2023/04/09 05:31:41;;;;;;;;;;;4.40;99.90;;;;;;5074211;28;19920;-63
2023/04/09 05:34:23;;;;;;;;;;;4.40;99.90;;;;;;5072861;28;19920;-62
2023/04/09 05:36:55;;;;;;;;;;;4.40;99.90;;;;;;5072870;28;19920;-62
2023/04/09 05:39:27;;;;;;;;;;;4.40;99.90;;;;;;5071861;28;20011;-62
2023/04/09 05:42:00;;;;;;;;;;;4.50;99.90;;;;;;5072812;28;20451;-62
2023/04/09 05:44:52;;;;;;;;;;;4.50;99.90;;;;;;5072927;28;19920;-63
2023/04/09 05:47:24;;;;;;;;;;;4.60;99.90;;;;;;5053290;28;19975;-60
2023/04/09 05:50:02;;;;;;;;;;;4.60;99.90;;;;;;5054441;28;20355;-63
2023/04/09 05:52:34;;;;;;;;;;;4.70;99.90;;;;;;5056149;28;19983;-62
2023/04/09 05:55:05;;;;;;;;;;;4.70;99.90;;;;;;5056754;28;19921;-63
2023/04/09 05:57:46;;;;;;;;;;;4.70;99.90;;;;;;5071995;28;19920;-63
2023/04/09 06:00:18;;;;;;;;;;;4.80;99.90;;;;;;5053171;28;20023;-62
2023/04/09 06:02:46;;;;;;;;;;;4.80;99.90;;;;;;5070281;28;19927;-62
2023/04/09 06:05:18;;;;;;;;;;;4.90;99.90;;;;;;5051761;28;19978;-62
2023/04/09 06:07:50;;;;;;;;;;;4.90;99.90;;;;;;5054594;28;19924;-62
2023/04/09 06:10:22;;;;;;;;;;;4.90;99.90;;;;;;5055619;28;20003;-63
2023/04/09 06:12:49;;;;;;;;;;;4.90;99.90;;;;;;5042447;28;20363;-62
2023/04/09 06:15:21;;;;;;;;;;;5.00;99.90;;;;;;5052398;28;19920;-62
2023/04/09 06:17:53;;;;;;;;;;;5.10;99.90;;;;;;5071926;28;19930;-62
2023/04/09 06:20:25;;;;;;;;;;;5.20;99.90;;;;;;5070139;28;19920;-62
2023/04/09 06:22:56;;;;;;;;;;;5.20;99.90;;;;;;5056186;28;20385;-62
2023/04/09 06:25:28;;;;;;;;;;;5.30;99.90;;;;;;5073393;28;19931;-62
2023/04/09 06:28:00;;;;;;;;;;;5.30;99.90;;;;;;5072923;28;19970;-62
2023/04/09 06:30:31;;;;;;;;;;;5.40;99.90;;;;;;5071412;28;19967;-62
2023/04/09 06:33:03;;;;;;;;;;;5.40;99.90;;;;;;5066535;28;20389;-62
2023/04/09 06:35:35;;;;;;;;;;;5.40;99.90;;;;;;5073204;28;20403;-62
2023/04/09 06:38:08;;;;;;;;;;;5.50;99.90;;;;;;5073023;28;19921;-62
2023/04/09 06:40:40;;;;;;;;;;;5.60;99.90;;;;;;5073094;28;19921;-63
2023/04/09 06:43:12;;;;;;;;;;;5.70;99.90;;;;;;5072691;28;20274;-62
2023/04/09 06:45:48;;;;;;;;;;;5.80;99.90;;;;;;5064122;28;19924;-62
2023/04/09 06:48:20;;;;;;;;;;;5.80;99.90;;;;;;5055272;28;19974;-62
2023/04/09 06:50:52;;;;;;;;;;;5.80;99.90;;;;;;5072964;28;20374;-63
2023/04/09 06:53:18;;;;;;;;;;;5.90;99.90;;;;;;5072679;28;20307;-62
2023/04/09 06:55:50;;;;;;;;;;;6.00;99.90;;;;;;5072813;28;19921;-62
2023/04/09 06:58:22;;;;;;;;;;;6.00;99.90;;;;;;5069437;28;19922;-62
2023/04/09 07:00:54;;;;;;;;;;;6.10;99.90;;;;;;5068653;28;19927;-63
2023/04/09 07:03:20;;;;;;;;;;;6.20;99.90;;;;;;5072288;28;20392;-62
2023/04/09 07:05:56;;;;;;;;;;;6.20;99.90;;;;;;5071209;28;19935;-62
2023/04/09 07:08:28;;;;;;;;;;;6.40;99.90;;;;;;5072168;28;19925;-62
2023/04/09 07:11:00;;;;;;;;;;;6.40;99.90;;;;;;5054431;28;19968;-63
2023/04/09 07:13:32;;;;;;;;;;;6.50;99.90;;;;;;5071693;28;19933;-63
2023/04/09 07:16:04;;;;;;;;;;;6.50;99.90;;;;;;5069067;28;20296;-62
2023/04/09 07:18:30;;;;;;;;;;;6.50;99.90;;;;;;5071556;28;19920;-63
2023/04/09 07:21:02;;;;;;;;;;;6.60;99.90;;;;;;5072067;28;20459;-62
2023/04/09 07:23:37;;;;;;;;;;;6.70;99.90;;;;;;5072210;28;19924;-66
2023/04/09 07:26:09;;;;;;;;;;;6.70;99.90;;;;;;5070014;28;19929;-63
2023/04/09 07:28:41;;;;;;;;;;;6.80;99.90;;;;;;5063037;28;19925;-62
2023/04/09 07:31:13;;;;;;;;;;;6.90;99.90;;;;;;5051643;28;20019;-62
2023/04/09 07:33:44;;;;;;;;;;;7.00;99.90;;;;;;5065627;28;19924;-63
2023/04/09 07:36:16;;;;;;;;;;;7.00;99.90;;;;;;5067014;28;19935;-63
2023/04/09 07:38:48;;;;;;;;;;;7.10;99.90;;;;;;5049464;28;19986;-62
2023/04/09 07:41:19;;;;;;;;;;;7.20;99.90;;;;;;5067749;28;19970;-62
2023/04/09 07:43:51;;;;;;;;;;;7.20;99.90;;;;;;5068362;28;19974;-62
2023/04/09 07:46:23;;;;;;;;;;;7.20;99.90;;;;;;5067213;28;20005;-62
2023/04/09 07:48:54;;;;;;;;;;;7.30;99.90;;;;;;5066183;28;19973;-62
2023/04/09 07:51:26;;;;;;;;;;;7.30;99.90;;;;;;5071677;28;20384;-62
2023/04/09 07:53:53;;;;;;;;;;;7.40;99.90;;;;;;5068935;28;19921;-63
2023/04/09 07:56:24;;;;;;;;;;;7.50;99.90;;;;;;5067702;28;20343;-62
2023/04/09 07:58:56;;;;;;;;;;;7.50;99.90;;;;;;5070585;28;19920;-63
2023/04/09 08:01:24;;;;;;;;;;;7.60;99.90;;;;;;5069982;28;19925;-63
2023/04/09 08:03:56;;;;;;;;;;;7.70;99.90;;;;;;5050085;28;19920;-63
2023/04/09 08:06:28;;;;;;;;;;;7.70;99.90;;;;;;5069400;28;20358;-62
2023/04/09 08:09:00;;;;;;;;;;;7.60;99.90;;;;;;5067961;28;20434;-63
2023/04/09 08:11:32;;;;;;;;;;;7.60;99.90;;;;;;5067531;28;19920;-63
2023/04/09 08:14:05;;;;;;;;;;;7.70;99.90;;;;;;5054017;28;19924;-63
2023/04/09 08:16:36;;;;;;;;;;;7.70;99.90;;;;;;5066036;28;19928;-62
2023/04/09 08:19:03;;;;;;;;;;;7.70;99.90;;;;;;5062778;28;19920;-65
2023/04/09 08:21:38;;;;;;;;;;;7.80;99.90;;;;;;5070084;28;19920;-63
2023/04/09 08:24:10;;;;;;;;;;;7.90;99.90;;;;;;5068894;28;20470;-62
2023/04/09 08:26:37;;;;;;;;;;;8.00;99.90;;;;;;5051307;28;19924;-62
2023/04/09 08:29:10;;;;;;;;;;;8.20;99.90;;;;;;5070713;28;19963;-62
2023/04/09 08:31:42;;;;;;;;;;;8.40;99.90;;;;;;5067475;28;20055;-61
2023/04/09 08:34:16;;;;;;;;;;;8.50;99.90;;;;;;5065535;28;19928;-62
2023/04/09 08:36:48;;;;;;;;;;;8.60;99.90;;;;;;5060489;28;19924;-62
2023/04/09 08:39:20;;;;;;;;;;;8.80;99.90;;;;;;5048199;28;20396;-62
2023/04/09 08:41:52;;;;;;;;;;;8.90;99.90;;;;;;5069823;28;20400;-62
2023/04/09 08:44:20;;;;;;;;;;;9.00;99.90;;;;;;5066532;28;19920;-62
2023/04/09 08:46:53;;;;;;;;;;;9.20;99.90;;;;;;5068282;28;19974;-63
2023/04/09 08:49:24;;;;;;;;;;;9.40;99.90;;;;;;5069201;28;20332;-63
2023/04/09 08:51:56;;;;;;;;;;;9.60;99.90;;;;;;5064628;28;19924;-63
2023/04/09 08:54:27;;;;;;;;;;;9.70;99.90;;;;;;5066510;28;19979;-62
2023/04/09 08:57:03;;;;;;;;;;;9.70;99.90;;;;;;5070956;28;20385;-62
2023/04/09 08:59:35;;;;;;;;;;;9.70;99.90;;;;;;5070483;28;19925;-63
2023/04/09 09:02:08;;;;;;;;;;;9.80;99.90;;;;;;5069883;28;19970;-62
2023/04/09 09:04:46;;;;;;;;;;;9.90;99.90;;;;;;5065645;28;19928;-63
2023/04/09 09:07:14;;;;;;;;;;;9.90;99.90;;;;;;5069304;28;20300;-63
2023/04/09 09:09:49;;;;;;;;;;;10.00;99.90;;;;;;5066300;28;20412;-62
2023/04/09 09:12:40;;;;;;;;;;;10.10;99.90;;;;;;5051536;28;19921;-62
2023/04/09 09:15:28;;;;;;;;;;;10.20;99.90;;;;;;5065953;28;19920;-62
2023/04/09 09:18:00;;;;;;;;;;;10.20;99.90;;;;;;5066797;28;20046;-62
2023/04/09 09:20:32;;;;;;;;;;;10.20;99.90;;;;;;5063764;28;19920;-62
2023/04/09 09:23:03;;;;;;;;;;;10.30;99.90;;;;;;5068416;28;20369;-62
2023/04/09 09:25:36;;;;;;;;;;;10.30;99.90;;;;;;5062205;28;19982;-62
2023/04/09 09:28:09;;;;;;;;;;;10.40;99.90;;;;;;5051149;28;19921;-62
2023/04/09 09:30:41;;;;;;;;;;;10.50;99.90;;;;;;5068760;28;20453;-62
2023/04/09 09:33:13;;;;;;;;;;;10.60;99.90;;;;;;5068675;28;19921;-62
2023/04/09 09:35:49;;;;;;;;;;;10.60;99.90;;;;;;5068811;28;19966;-62
2023/04/09 09:38:21;;;;;;;;;;;10.70;99.90;;;;;;5063401;28;19974;-62
2023/04/09 09:40:53;;;;;;;;;;;10.70;99.90;;;;;;5051867;28;20300;-62
2023/04/09 09:43:20;;;;;;;;;;;10.80;99.90;;;;;;5073878;28;19920;-62
2023/04/09 09:45:52;;;;;;;;;;;11.00;99.90;;;;;;5072627;28;19954;-62
2023/04/09 09:48:24;;;;;;;;;;;11.10;99.90;;;;;;5073165;28;19935;-62
2023/04/09 09:50:56;;;;;;;;;;;11.20;99.90;;;;;;5053643;28;19925;-62
2023/04/09 09:53:29;;;;;;;;;;;11.30;99.90;;;;;;5070624;28;19974;-62
2023/04/09 09:56:01;;;;;;;;;;;11.40;99.90;;;;;;5069078;28;19966;-62
2023/04/09 09:58:39;;;;;;;;;;;11.40;99.90;;;;;;5072134;28;20393;-62
2023/04/09 10:01:12;;;;;;;;;;;11.60;99.90;;;;;;5054552;28;19920;-62
2023/04/09 10:03:44;;;;;;;;;;;11.70;99.90;;;;;;5068612;28;19924;-62
2023/04/09 10:06:16;;;;;;;;;;;12.00;99.90;;;;;;5065634;28;19925;-62
2023/04/09 10:08:44;;;;;;;;;;;12.00;99.90;;;;;;5068610;28;20393;-62
2023/04/09 10:11:16;;;;;;;;;;;12.10;99.90;;;;;;5071812;28;19982;-62
2023/04/09 10:13:49;;;;;;;;;;;12.20;99.90;;;;;;5070302;28;19924;-62
2023/04/09 10:16:22;;;;;;;;;;;12.20;99.90;;;;;;5069430;28;19946;-62
2023/04/09 10:18:57;;;;;;;;;;;12.20;99.90;;;;;;5052636;28;19921;-62
2023/04/09 10:21:48;;;;;;;;;;;12.30;99.90;;;;;;5067611;28;20293;-62
2023/04/09 10:24:15;;;;;;;;;;;12.40;99.90;;;;;;5055061;28;19927;-62
2023/04/09 10:26:47;;;;;;;;;;;12.30;99.90;;;;;;5068684;28;20359;-62
2023/04/09 10:29:26;;;;;;;;;;;12.10;99.90;;;;;;5068079;28;19924;-62
2023/04/09 10:32:07;;;;;;;;;;;12.10;99.90;;;;;;5050992;28;19921;-62
2023/04/09 10:34:39;;;;;;;;;;;12.00;99.90;;;;;;5052400;28;19921;-62
2023/04/09 10:37:19;;;;;;;;;;;12.00;99.90;;;;;;5066485;28;20399;-62
2023/04/09 10:39:46;;;;;;;;;;;11.90;99.90;;;;;;5068598;28;19984;-62
2023/04/09 10:42:26;;;;;;;;;;;12.00;99.90;;;;;;5070854;28;20394;-62
2023/04/09 10:45:05;;;;;;;;;;;12.10;99.90;;;;;;5053819;28;19920;-62
2023/04/09 10:47:38;;;;;;;;;;;12.20;99.90;;;;;;5064608;28;19920;-62
2023/04/09 10:50:31;;;;;;;;;;;12.20;99.90;;;;;;5051075;28;19931;-62
2023/04/09 10:53:03;;;;;;;;;;;12.10;99.90;;;;;;5071722;28;20355;-62
2023/04/09 10:55:36;;;;;;;;;;;12.30;99.90;;;;;;5053727;28;19924;-62
2023/04/09 10:58:09;;;;;;;;;;;12.30;99.90;;;;;;5053088;28;20312;-62
2023/04/09 11:00:44;;;;;;;;;;;12.30;99.90;;;;;;5049320;28;19977;-62
2023/04/09 11:03:19;;;;;;;;;;;12.40;99.90;;;;;;5061275;28;19921;-62
2023/04/09 11:06:09;;;;;;;;;;;12.80;99.90;;;;;;5070802;28;19931;-62
2023/04/09 11:08:43;;;;;;;;;;;13.10;99.90;;;;;;5070697;28;19920;-62
2023/04/09 11:11:15;;;;;;;;;;;13.40;99.90;;;;;;5071660;28;19920;-62
2023/04/09 11:13:46;;;;;;;;;;;13.50;99.90;;;;;;5069268;28;19954;-62
2023/04/09 11:16:19;;;;;;;;;;;13.40;99.90;;;;;;5069051;28;20376;-65
2023/04/09 11:18:52;;;;;;;;;;;13.50;99.90;;;;;;5071965;28;19921;-65
2023/04/09 11:21:30;;;;;;;;;;;13.50;99.90;;;;;;5072001;28;19924;-65
2023/04/09 11:23:57;;;;;;;;;;;13.50;99.90;;;;;;5071862;28;19921;-62
2023/04/09 11:26:33;;;;;;;;;;;13.40;99.90;;;;;;5072026;28;19921;-62
2023/04/09 11:29:08;;;;;;;;;;;13.20;99.90;;;;;;5054220;28;19920;-62
2023/04/09 11:31:42;;;;;;;;;;;13.00;99.90;;;;;;5071850;28;19920;-63
2023/04/09 11:34:14;;;;;;;;;;;12.90;99.90;;;;;;5054084;28;19970;-62
2023/04/09 11:36:47;;;;;;;;;;;12.70;99.90;;;;;;5067287;28;19928;-62
2023/04/09 11:39:19;;;;;;;;;;;12.60;99.90;;;;;;5063403;28;19924;-62
2023/04/09 11:41:51;;;;;;;;;;;12.50;99.90;;;;;;5069547;28;19920;-62
2023/04/09 11:44:23;;;;;;;;;;;12.50;99.90;;;;;;5070413;28;19956;-62
2023/04/09 11:46:56;;;;;;;;;;;12.50;99.90;;;;;;5070963;28;20417;-62
2023/04/09 11:49:28;;;;;;;;;;;12.60;99.90;;;;;;5054068;28;19984;-62
2023/04/09 11:52:00;;;;;;;;;;;12.70;99.90;;;;;;5067440;28;19925;-62
2023/04/09 11:54:35;;;;;;;;;;;12.60;99.90;;;;;;5063503;28;19943;-62
2023/04/09 11:57:03;;;;;;;;;;;12.60;99.90;;;;;;5065518;28;19932;-62
2023/04/09 11:59:37;;;;;;;;;;;12.60;99.90;;;;;;5066571;28;19978;-62
2023/04/09 12:02:09;;;;;;;;;;;12.60;99.90;;;;;;5069426;28;19920;-62
2023/04/09 12:04:47;;;;;;;;;;;12.60;99.90;;;;;;5049453;28;19920;-62
2023/04/09 12:07:19;;;;;;;;;;;12.60;99.90;;;;;;5065911;28;19924;-63
2023/04/09 12:09:51;;;;;;;;;;;12.60;99.90;;;;;;5067860;28;20385;-62
2023/04/09 12:12:23;;;;;;;;;;;12.60;99.90;;;;;;5065835;28;19928;-67
2023/04/09 12:14:50;;;;;;;;;;;12.70;99.90;;;;;;5048438;28;20027;-62
2023/04/09 12:17:22;;;;;;;;;;;12.60;99.90;;;;;;5067344;28;20678;-61
2023/04/09 12:19:54;;;;;;;;;;;12.60;99.90;;;;;;5059315;28;19928;-62
2023/04/09 12:22:26;;;;;;;;;;;12.70;99.90;;;;;;5052423;28;20027;-61
2023/04/09 12:24:58;;;;;;;;;;;12.70;99.90;;;;;;5071327;28;19946;-61
2023/04/09 12:27:31;;;;;;;;;;;12.70;99.90;;;;;;5071000;28;20303;-61
2023/04/09 12:30:03;;;;;;;;;;;12.90;99.90;;;;;;5071299;28;20369;-62
2023/04/09 12:32:34;;;;;;;;;;;13.00;99.90;;;;;;5070572;28;19947;-62
2023/04/09 12:35:01;;;;;;;;;;;12.90;99.90;;;;;;5052480;28;19920;-63
2023/04/09 12:37:28;;;;;;;;;;;12.90;99.90;;;;;;5046722;28;19924;-61
2023/04/09 12:40:00;;;;;;;;;;;12.80;99.90;;;;;;5065938;28;20470;-62
2023/04/09 12:42:27;;;;;;;;;;;12.70;99.90;;;;;;5051166;28;20403;-63
2023/04/09 12:44:58;;;;;;;;;;;12.70;99.90;;;;;;5068820;28;19951;-63
2023/04/09 12:47:30;;;;;;;;;;;12.70;99.90;;;;;;5063858;28;19932;-62
2023/04/09 12:50:03;;;;;;;;;;;12.70;99.90;;;;;;5068477;28;19921;-62
2023/04/09 12:52:35;;;;;;;;;;;12.70;99.90;;;;;;5067015;28;19925;-62
2023/04/09 12:55:07;;;;;;;;;;;12.80;99.90;;;;;;5053539;28;20388;-62
2023/04/09 12:57:41;;;;;;;;;;;12.80;99.90;;;;;;5070736;28;19928;-62
2023/04/09 13:00:13;;;;;;;;;;;12.80;99.90;;;;;;5069138;28;19970;-62
2023/04/09 13:02:45;;;;;;;;;;;12.80;99.90;;;;;;5068225;28;20269;-62
2023/04/09 13:05:16;;;;;;;;;;;12.90;99.90;;;;;;5069596;28;19931;-62
2023/04/09 13:07:48;;;;;;;;;;;13.20;99.90;;;;;;5067812;28;19970;-62
2023/04/09 13:10:20;;;;;;;;;;;13.40;99.90;;;;;;5067075;28;19924;-62
2023/04/09 13:12:51;;;;;;;;;;;13.50;99.90;;;;;;5069502;28;19928;-62
2023/04/09 13:15:23;;;;;;;;;;;13.70;99.90;;;;;;5072432;28;19921;-62
2023/04/09 13:17:55;;;;;;;;;;;13.80;99.90;;;;;;5074327;28;19921;-62
2023/04/09 13:20:26;;;;;;;;;;;13.80;99.90;;;;;;5074679;28;19974;-62
2023/04/09 13:22:58;;;;;;;;;;;14.10;99.90;;;;;;5065175;28;19928;-62
2023/04/09 13:25:30;;;;;;;;;;;14.20;99.90;;;;;;5055330;28;20049;-62
2023/04/09 13:27:57;;;;;;;;;;;14.30;99.90;;;;;;5074028;28;19995;-62
2023/04/09 13:30:28;;;;;;;;;;;14.30;99.60;;;;;;5057274;28;20265;-62
2023/04/09 13:33:00;;;;;;;;;;;14.30;99.70;;;;;;5074166;28;19925;-62
2023/04/09 13:35:32;;;;;;;;;;;14.20;99.20;;;;;;5074241;28;19924;-62
2023/04/09 13:38:03;;;;;;;;;;;14.10;98.40;;;;;;5074099;28;20419;-62
2023/04/09 13:40:35;;;;;;;;;;;13.90;98.00;;;;;;5072575;28;19932;-62
2023/04/09 13:43:01;;;;;;;;;;;13.70;99.00;;;;;;5072972;28;19931;-62
2023/04/09 13:45:33;;;;;;;;;;;13.60;98.60;;;;;;5073104;28;19924;-62
2023/04/09 13:48:05;;;;;;;;;;;13.50;99.70;;;;;;5073821;28;19928;-62
2023/04/09 13:50:32;;;;;;;;;;;13.30;99.90;;;;;;5066501;28;19920;-62
2023/04/09 13:53:04;;;;;;;;;;;13.30;99.90;;;;;;5072625;28;19991;-62
2023/04/09 13:55:36;;;;;;;;;;;13.20;99.90;;;;;;5074011;28;19920;-62
2023/04/09 13:58:07;;;;;;;;;;;13.30;99.90;;;;;;5073487;28;19924;-62
2023/04/09 14:00:39;;;;;;;;;;;13.40;99.90;;;;;;5072728;28;19928;-62
2023/04/09 14:03:11;;;;;;;;;;;13.40;99.90;;;;;;5070351;28;20580;-62
2023/04/09 14:05:43;;;;;;;;;;;13.50;99.90;;;;;;5071402;28;19920;-62
2023/04/09 14:08:15;;;;;;;;;;;13.40;99.90;;;;;;5073518;28;19936;-62
2023/04/09 14:10:42;;;;;;;;;;;13.50;99.90;;;;;;5073858;28;19928;-62
2023/04/09 14:13:14;;;;;;;;;;;13.70;99.50;;;;;;5054649;28;19924;-62
2023/04/09 14:15:46;;;;;;;;;;;14.00;99.20;;;;;;5073623;28;19931;-62
2023/04/09 14:18:17;;;;;;;;;;;14.30;98.50;;;;;;5070477;28;19920;-62
2023/04/09 14:20:49;;;;;;;;;;;14.70;97.70;;;;;;5073485;28;19928;-62
2023/04/09 14:23:16;;;;;;;;;;;14.90;96.10;;;;;;5073243;28;19943;-62
2023/04/09 14:25:48;;;;;;;;;;;15.30;96.20;;;;;;5072876;28;19966;-63
2023/04/09 14:28:20;;;;;;;;;;;15.50;96.30;;;;;;5073174;28;19924;-62
2023/04/09 14:30:51;;;;;;;;;;;15.80;95.00;;;;;;5073518;28;19970;-62
2023/04/09 14:33:23;;;;;;;;;;;16.00;94.40;;;;;;5073178;28;19978;-62
2023/04/09 14:35:55;;;;;;;;;;;16.20;95.50;;;;;;5071417;28;19962;-62
2023/04/09 14:38:23;;;;;;;;;;;16.50;94.30;;;;;;5073012;28;19928;-62
2023/04/09 14:40:50;;;;;;;;;;;16.30;92.80;;;;;;5073033;28;19928;-62
2023/04/09 14:43:21;;;;;;;;;;;16.40;93.60;;;;;;5072663;28;20454;-62
2023/04/09 14:45:53;;;;;;;;;;;16.60;93.10;;;;;;5072607;28;20315;-62
2023/04/09 14:48:24;;;;;;;;;;;16.90;92.10;;;;;;5072702;28;19990;-62
2023/04/09 14:50:57;;;;;;;;;;;17.40;91.10;;;;;;5072885;28;19924;-62
2023/04/09 14:53:28;;;;;;;;;;;17.70;89.50;;;;;;5055751;28;20015;-62
2023/04/09 14:56:00;;;;;;;;;;;18.00;87.80;;;;;;5071758;28;19921;-62
2023/04/09 14:58:32;;;;;;;;;;;17.90;89.10;;;;;;5072556;28;19988;-62